sensor_id;sensor_type;location;lat;lon;timestamp;pressure;altitude;pressure_sealevel;temperature;humidity
70011;BME280;59543;37.950;-122.338;2023-03-23T01:02:20;101430.00;;;12.78;69.21
70011;BME280;59543;37.950;-122.338;2023-03-23T01:04:50;101432.53;;;12.89;69.23
70011;BME280;59543;37.950;-122.338;2023-03-23T01:07:21;101432.22;;;12.92;69.06
70011;BME280;59543;37.950;-122.338;2023-03-23T01:09:49;101434.41;;;12.79;68.80
70011;BME280;59543;37.950;-122.338;2023-03-23T01:12:19;101442.78;;;12.86;67.11
70011;BME280;59543;37.950;-122.338;2023-03-23T01:14:45;101442.81;;;12.76;67.00
70011;BME280;59543;37.950;-122.338;2023-03-23T01:17:13;101444.50;;;12.77;67.17
70011;BME280;59543;37.950;-122.338;2023-03-23T01:19:40;101449.44;;;12.91;67.97
70011;BME280;59543;37.950;-122.338;2023-03-23T01:22:08;101450.41;;;12.90;67.51
70011;BME280;59543;37.950;-122.338;2023-03-23T01:24:34;101455.84;;;12.80;67.00
70011;BME280;59543;37.950;-122.338;2023-03-23T01:27:00;101456.00;;;12.69;66.97
70011;BME280;59543;37.950;-122.338;2023-03-23T01:29:33;101460.16;;;12.54;67.54
70011;BME280;59543;37.950;-122.338;2023-03-23T01:31:59;101459.03;;;12.47;66.53
70011;BME280;59543;37.950;-122.338;2023-03-23T01:34:26;101461.88;;;12.55;65.89
70011;BME280;59543;37.950;-122.338;2023-03-23T01:36:55;101464.31;;;12.29;67.56
70011;BME280;59543;37.950;-122.338;2023-03-23T01:39:22;101460.59;;;12.30;68.09
70011;BME280;59543;37.950;-122.338;2023-03-23T01:41:48;101469.28;;;12.33;67.69
70011;BME280;59543;37.950;-122.338;2023-03-23T01:46:44;101477.25;;;12.25;68.18
70011;BME280;59543;37.950;-122.338;2023-03-23T01:49:18;101476.69;;;12.22;68.49
70011;BME280;59543;37.950;-122.338;2023-03-23T01:52:00;101479.09;;;12.25;68.41
70011;BME280;59543;37.950;-122.338;2023-03-23T01:54:28;101483.78;;;12.13;68.67
70011;BME280;59543;37.950;-122.338;2023-03-23T01:57:08;101484.63;;;12.13;69.13
70011;BME280;59543;37.950;-122.338;2023-03-23T01:59:36;101482.34;;;12.19;69.25
70011;BME280;59543;37.950;-122.338;2023-03-23T02:02:03;101494.41;;;12.15;69.46
70011;BME280;59543;37.950;-122.338;2023-03-23T02:04:31;101494.84;;;12.10;70.63
70011;BME280;59543;37.950;-122.338;2023-03-23T02:06:59;101499.22;;;12.11;70.62
70011;BME280;59543;37.950;-122.338;2023-03-23T02:09:27;101504.34;;;12.24;69.72
70011;BME280;59543;37.950;-122.338;2023-03-23T02:11:54;101506.47;;;12.20;70.52
70011;BME280;59543;37.950;-122.338;2023-03-23T02:14:22;101503.38;;;12.25;70.02
70011;BME280;59543;37.950;-122.338;2023-03-23T02:17:04;101505.91;;;12.17;70.37
70011;BME280;59543;37.950;-122.338;2023-03-23T02:33:15;101513.81;;;11.89;72.50
70011;BME280;59543;37.950;-122.338;2023-03-23T02:35:50;101516.88;;;11.75;72.43
70011;BME280;59543;37.950;-122.338;2023-03-23T02:38:44;101514.19;;;11.84;72.40
70011;BME280;59543;37.950;-122.338;2023-03-23T02:41:09;101521.44;;;11.84;72.45
70011;BME280;59543;37.950;-122.338;2023-03-23T02:43:42;101519.41;;;11.76;73.61
70011;BME280;59543;37.950;-122.338;2023-03-23T02:46:10;101522.09;;;11.76;73.55
70011;BME280;59543;37.950;-122.338;2023-03-23T02:48:38;101532.75;;;11.78;73.43
70011;BME280;59543;37.950;-122.338;2023-03-23T02:51:06;101520.66;;;11.62;74.07
70011;BME280;59543;37.950;-122.338;2023-03-23T02:53:36;101522.25;;;11.75;73.20
70011;BME280;59543;37.950;-122.338;2023-03-23T02:56:04;101526.47;;;11.88;72.49
70011;BME280;59543;37.950;-122.338;2023-03-23T02:58:33;101528.56;;;11.85;72.50
70011;BME280;59543;37.950;-122.338;2023-03-23T03:00:59;101529.63;;;11.73;72.99
70011;BME280;59543;37.950;-122.338;2023-03-23T03:03:28;101534.72;;;11.76;72.81
70011;BME280;59543;37.950;-122.338;2023-03-23T03:08:53;101538.81;;;11.60;73.39
70011;BME280;59543;37.950;-122.338;2023-03-23T03:11:21;101543.22;;;11.61;73.65
70011;BME280;59543;37.950;-122.338;2023-03-23T03:16:32;101544.06;;;11.62;73.25
70011;BME280;59543;37.950;-122.338;2023-03-23T03:19:02;101552.84;;;11.64;73.32
70011;BME280;59543;37.950;-122.338;2023-03-23T03:21:33;101545.31;;;11.58;72.78
70011;BME280;59543;37.950;-122.338;2023-03-23T03:24:02;101552.16;;;11.62;72.53
70011;BME280;59543;37.950;-122.338;2023-03-23T03:26:30;101549.75;;;11.68;72.48
70011;BME280;59543;37.950;-122.338;2023-03-23T03:29:00;101550.59;;;11.69;71.43
70011;BME280;59543;37.950;-122.338;2023-03-23T03:31:32;101552.19;;;11.72;71.92
70011;BME280;59543;37.950;-122.338;2023-03-23T03:34:00;101562.78;;;11.63;71.55
70011;BME280;59543;37.950;-122.338;2023-03-23T03:36:32;101566.28;;;11.54;71.81
70011;BME280;59543;37.950;-122.338;2023-03-23T03:39:08;101573.69;;;11.52;71.24
70011;BME280;59543;37.950;-122.338;2023-03-23T03:41:37;101571.50;;;11.46;71.96
70011;BME280;59543;37.950;-122.338;2023-03-23T03:44:04;101581.16;;;11.49;72.10
70011;BME280;59543;37.950;-122.338;2023-03-23T03:46:31;101586.88;;;11.55;71.76
70011;BME280;59543;37.950;-122.338;2023-03-23T03:48:58;101584.25;;;11.44;72.49
70011;BME280;59543;37.950;-122.338;2023-03-23T03:51:26;101593.72;;;11.38;73.04
70011;BME280;59543;37.950;-122.338;2023-03-23T03:53:53;101596.00;;;11.43;72.71
70011;BME280;59543;37.950;-122.338;2023-03-23T03:56:20;101613.97;;;11.33;72.92
70011;BME280;59543;37.950;-122.338;2023-03-23T03:58:48;101612.13;;;11.33;73.35
70011;BME280;59543;37.950;-122.338;2023-03-23T04:01:17;101618.78;;;11.29;73.56
70011;BME280;59543;37.950;-122.338;2023-03-23T04:03:44;101623.56;;;11.26;73.97
70011;BME280;59543;37.950;-122.338;2023-03-23T04:06:11;101631.78;;;11.24;74.42
70011;BME280;59543;37.950;-122.338;2023-03-23T04:08:40;101632.50;;;11.05;75.47
70011;BME280;59543;37.950;-122.338;2023-03-23T04:11:11;101628.47;;;10.99;75.79
70011;BME280;59543;37.950;-122.338;2023-03-23T04:13:40;101636.19;;;11.04;75.59
70011;BME280;59543;37.950;-122.338;2023-03-23T04:16:07;101644.03;;;10.96;76.06
70011;BME280;59543;37.950;-122.338;2023-03-23T04:18:34;101651.91;;;10.88;76.65
70011;BME280;59543;37.950;-122.338;2023-03-23T04:21:02;101662.94;;;10.85;76.99
70011;BME280;59543;37.950;-122.338;2023-03-23T04:23:30;101655.69;;;10.85;77.09
70011;BME280;59543;37.950;-122.338;2023-03-23T04:25:59;101663.19;;;10.82;77.37
70011;BME280;59543;37.950;-122.338;2023-03-23T04:28:26;101672.09;;;10.82;77.26
70011;BME280;59543;37.950;-122.338;2023-03-23T04:30:54;101670.59;;;10.68;78.17
70011;BME280;59543;37.950;-122.338;2023-03-23T04:33:25;101674.97;;;10.69;78.73
70011;BME280;59543;37.950;-122.338;2023-03-23T04:35:53;101669.16;;;10.53;79.23
70011;BME280;59543;37.950;-122.338;2023-03-23T04:38:22;101676.72;;;10.59;79.54
70011;BME280;59543;37.950;-122.338;2023-03-23T04:40:50;101670.63;;;10.46;80.34
70011;BME280;59543;37.950;-122.338;2023-03-23T04:43:18;101674.81;;;10.27;81.11
70011;BME280;59543;37.950;-122.338;2023-03-23T04:45:56;101680.06;;;10.18;81.64
70011;BME280;59543;37.950;-122.338;2023-03-23T04:48:27;101674.06;;;10.37;80.93
70011;BME280;59543;37.950;-122.338;2023-03-23T04:50:54;101689.00;;;10.29;81.37
70011;BME280;59543;37.950;-122.338;2023-03-23T04:53:20;101693.13;;;10.22;81.85
70011;BME280;59543;37.950;-122.338;2023-03-23T04:55:48;101685.78;;;10.24;82.18
70011;BME280;59543;37.950;-122.338;2023-03-23T04:58:16;101698.91;;;10.29;81.21
70011;BME280;59543;37.950;-122.338;2023-03-23T05:00:43;101692.50;;;10.19;82.26
70011;BME280;59543;37.950;-122.338;2023-03-23T05:03:19;101708.53;;;10.20;82.19
70011;BME280;59543;37.950;-122.338;2023-03-23T05:05:46;101704.59;;;10.24;82.02
70011;BME280;59543;37.950;-122.338;2023-03-23T05:08:21;101712.06;;;10.21;82.20
70011;BME280;59543;37.950;-122.338;2023-03-23T05:10:55;101712.22;;;10.08;83.04
70011;BME280;59543;37.950;-122.338;2023-03-23T05:13:22;101711.06;;;10.11;82.63
70011;BME280;59543;37.950;-122.338;2023-03-23T05:15:49;101710.59;;;10.17;82.64
70011;BME280;59543;37.950;-122.338;2023-03-23T05:18:16;101712.81;;;10.12;83.16
70011;BME280;59543;37.950;-122.338;2023-03-23T05:20:42;101717.94;;;10.37;81.73
70011;BME280;59543;37.950;-122.338;2023-03-23T05:23:09;101720.44;;;10.29;81.71
70011;BME280;59543;37.950;-122.338;2023-03-23T05:25:36;101729.41;;;10.17;82.53
70011;BME280;59543;37.950;-122.338;2023-03-23T05:28:09;101732.97;;;10.17;82.61
70011;BME280;59543;37.950;-122.338;2023-03-23T05:30:37;101740.31;;;10.15;82.94
70011;BME280;59543;37.950;-122.338;2023-03-23T05:33:04;101739.91;;;10.20;82.66
70011;BME280;59543;37.950;-122.338;2023-03-23T05:35:31;101743.25;;;10.23;82.71
70011;BME280;59543;37.950;-122.338;2023-03-23T05:37:57;101742.25;;;10.24;82.41
70011;BME280;59543;37.950;-122.338;2023-03-23T05:40:23;101748.28;;;10.28;82.11
70011;BME280;59543;37.950;-122.338;2023-03-23T05:42:51;101747.19;;;10.30;82.27
70011;BME280;59543;37.950;-122.338;2023-03-23T05:45:18;101750.22;;;10.37;81.78
70011;BME280;59543;37.950;-122.338;2023-03-23T05:47:45;101755.00;;;10.34;82.20
70011;BME280;59543;37.950;-122.338;2023-03-23T05:50:11;101756.34;;;10.39;81.85
70011;BME280;59543;37.950;-122.338;2023-03-23T05:52:39;101754.75;;;10.37;81.99
70011;BME280;59543;37.950;-122.338;2023-03-23T05:55:07;101751.81;;;10.40;82.08
70011;BME280;59543;37.950;-122.338;2023-03-23T05:57:33;101753.06;;;10.36;82.12
70011;BME280;59543;37.950;-122.338;2023-03-23T06:00:00;101758.53;;;10.34;82.55
70011;BME280;59543;37.950;-122.338;2023-03-23T06:02:37;101767.69;;;10.32;82.54
70011;BME280;59543;37.950;-122.338;2023-03-23T06:05:04;101767.47;;;10.35;83.05
70011;BME280;59543;37.950;-122.338;2023-03-23T06:07:30;101770.28;;;10.33;82.82
70011;BME280;59543;37.950;-122.338;2023-03-23T06:09:56;101770.66;;;10.40;82.48
70011;BME280;59543;37.950;-122.338;2023-03-23T06:12:23;101777.13;;;10.37;82.76
70011;BME280;59543;37.950;-122.338;2023-03-23T06:14:50;101778.13;;;10.47;82.36
70011;BME280;59543;37.950;-122.338;2023-03-23T06:17:17;101775.66;;;10.44;82.24
70011;BME280;59543;37.950;-122.338;2023-03-23T06:19:44;101780.16;;;10.55;81.77
70011;BME280;59543;37.950;-122.338;2023-03-23T06:22:15;101791.19;;;10.52;81.89
70011;BME280;59543;37.950;-122.338;2023-03-23T06:24:42;101791.28;;;10.62;81.45
70011;BME280;59543;37.950;-122.338;2023-03-23T06:27:10;101794.13;;;10.49;82.12
70011;BME280;59543;37.950;-122.338;2023-03-23T06:29:36;101788.25;;;10.44;82.71
70011;BME280;59543;37.950;-122.338;2023-03-23T06:32:04;101796.44;;;10.42;82.57
70011;BME280;59543;37.950;-122.338;2023-03-23T06:34:31;101802.06;;;10.39;83.04
70011;BME280;59543;37.950;-122.338;2023-03-23T06:37:00;101799.63;;;10.36;83.25
70011;BME280;59543;37.950;-122.338;2023-03-23T06:39:27;101798.78;;;10.36;83.13
70011;BME280;59543;37.950;-122.338;2023-03-23T06:41:54;101799.72;;;10.35;83.45
70011;BME280;59543;37.950;-122.338;2023-03-23T06:44:22;101796.94;;;10.36;83.80
70011;BME280;59543;37.950;-122.338;2023-03-23T06:46:48;101801.47;;;10.36;83.63
70011;BME280;59543;37.950;-122.338;2023-03-23T06:49:14;101804.41;;;10.33;83.73
70011;BME280;59543;37.950;-122.338;2023-03-23T06:51:41;101802.66;;;10.32;83.93
70011;BME280;59543;37.950;-122.338;2023-03-23T06:54:07;101809.03;;;10.30;83.94
70011;BME280;59543;37.950;-122.338;2023-03-23T06:56:33;101802.44;;;10.46;83.17
70011;BME280;59543;37.950;-122.338;2023-03-23T06:59:00;101814.66;;;10.39;83.33
70011;BME280;59543;37.950;-122.338;2023-03-23T07:01:26;101818.31;;;10.49;82.70
70011;BME280;59543;37.950;-122.338;2023-03-23T07:03:54;101819.31;;;10.37;82.94
70011;BME280;59543;37.950;-122.338;2023-03-23T07:06:21;101821.50;;;10.32;83.61
70011;BME280;59543;37.950;-122.338;2023-03-23T07:08:48;101819.31;;;10.37;83.50
70011;BME280;59543;37.950;-122.338;2023-03-23T07:11:14;101825.78;;;10.34;82.93
70011;BME280;59543;37.950;-122.338;2023-03-23T07:13:40;101826.03;;;10.31;83.00
70011;BME280;59543;37.950;-122.338;2023-03-23T07:16:07;101827.09;;;10.28;82.43
70011;BME280;59543;37.950;-122.338;2023-03-23T07:18:34;101828.31;;;10.24;82.88
70011;BME280;59543;37.950;-122.338;2023-03-23T07:21:00;101823.50;;;10.17;82.48
70011;BME280;59543;37.950;-122.338;2023-03-23T07:23:28;101824.63;;;10.14;82.63
70011;BME280;59543;37.950;-122.338;2023-03-23T07:25:54;101822.66;;;10.16;82.63
70011;BME280;59543;37.950;-122.338;2023-03-23T07:28:21;101829.59;;;10.07;82.72
70011;BME280;59543;37.950;-122.338;2023-03-23T07:30:47;101827.06;;;10.06;81.91
70011;BME280;59543;37.950;-122.338;2023-03-23T07:33:14;101834.38;;;10.04;82.52
70011;BME280;59543;37.950;-122.338;2023-03-23T07:35:40;101834.63;;;10.01;82.85
70011;BME280;59543;37.950;-122.338;2023-03-23T07:38:07;101830.47;;;9.97;83.65
70011;BME280;59543;37.950;-122.338;2023-03-23T07:40:35;101840.59;;;10.04;82.41
70011;BME280;59543;37.950;-122.338;2023-03-23T07:43:03;101840.97;;;10.00;82.82
70011;BME280;59543;37.950;-122.338;2023-03-23T07:45:30;101840.59;;;10.04;82.40
70011;BME280;59543;37.950;-122.338;2023-03-23T07:47:57;101838.28;;;10.00;82.45
70011;BME280;59543;37.950;-122.338;2023-03-23T07:50:23;101848.66;;;10.04;82.54
70011;BME280;59543;37.950;-122.338;2023-03-23T07:52:56;101849.78;;;10.02;82.48
70011;BME280;59543;37.950;-122.338;2023-03-23T07:55:23;101843.56;;;10.13;81.85
70011;BME280;59543;37.950;-122.338;2023-03-23T07:57:51;101848.56;;;10.06;82.28
70011;BME280;59543;37.950;-122.338;2023-03-23T08:00:18;101850.75;;;10.01;82.43
70011;BME280;59543;37.950;-122.338;2023-03-23T08:02:54;101857.84;;;10.02;82.17
70011;BME280;59543;37.950;-122.338;2023-03-23T08:05:22;101841.81;;;10.00;82.29
70011;BME280;59543;37.950;-122.338;2023-03-23T08:07:51;101844.03;;;10.06;81.56
70011;BME280;59543;37.950;-122.338;2023-03-23T08:10:20;101841.56;;;9.92;82.33
70011;BME280;59543;37.950;-122.338;2023-03-23T08:12:54;101848.19;;;9.99;81.93
70011;BME280;59543;37.950;-122.338;2023-03-23T08:15:22;101849.28;;;9.97;81.80
70011;BME280;59543;37.950;-122.338;2023-03-23T08:17:49;101849.38;;;9.84;82.24
70011;BME280;59543;37.950;-122.338;2023-03-23T08:20:16;101842.41;;;9.93;81.88
70011;BME280;59543;37.950;-122.338;2023-03-23T08:22:48;101855.59;;;9.84;82.30
70011;BME280;59543;37.950;-122.338;2023-03-23T08:25:15;101851.38;;;9.69;82.58
70011;BME280;59543;37.950;-122.338;2023-03-23T08:27:43;101853.56;;;9.64;82.78
70011;BME280;59543;37.950;-122.338;2023-03-23T08:30:12;101862.47;;;9.65;82.58
70011;BME280;59543;37.950;-122.338;2023-03-23T08:32:39;101867.09;;;9.62;82.57
70011;BME280;59543;37.950;-122.338;2023-03-23T08:35:08;101872.66;;;9.72;82.32
70011;BME280;59543;37.950;-122.338;2023-03-23T08:37:35;101873.13;;;9.66;82.39
70011;BME280;59543;37.950;-122.338;2023-03-23T08:40:03;101877.50;;;9.67;82.48
70011;BME280;59543;37.950;-122.338;2023-03-23T08:42:37;101882.72;;;9.57;83.51
70011;BME280;59543;37.950;-122.338;2023-03-23T08:45:05;101874.44;;;9.60;83.12
70011;BME280;59543;37.950;-122.338;2023-03-23T08:47:33;101887.00;;;9.60;83.14
70011;BME280;59543;37.950;-122.338;2023-03-23T08:50:02;101879.78;;;9.60;82.71
70011;BME280;59543;37.950;-122.338;2023-03-23T08:52:29;101877.72;;;9.64;82.70
70011;BME280;59543;37.950;-122.338;2023-03-23T08:54:55;101887.47;;;9.54;83.34
70011;BME280;59543;37.950;-122.338;2023-03-23T08:57:23;101889.22;;;9.66;81.64
70011;BME280;59543;37.950;-122.338;2023-03-23T08:59:50;101889.00;;;9.69;81.62
70011;BME280;59543;37.950;-122.338;2023-03-23T09:02:17;101892.84;;;9.54;82.07
70011;BME280;59543;37.950;-122.338;2023-03-23T09:04:43;101899.06;;;9.54;82.42
70011;BME280;59543;37.950;-122.338;2023-03-23T09:07:10;101893.31;;;9.59;81.48
70011;BME280;59543;37.950;-122.338;2023-03-23T09:09:38;101898.38;;;9.64;81.31
70011;BME280;59543;37.950;-122.338;2023-03-23T09:12:09;101900.66;;;9.57;81.91
70011;BME280;59543;37.950;-122.338;2023-03-23T09:14:37;101898.25;;;9.65;81.01
70011;BME280;59543;37.950;-122.338;2023-03-23T09:17:04;101902.66;;;9.66;80.98
70011;BME280;59543;37.950;-122.338;2023-03-23T09:19:33;101897.28;;;9.66;80.61
70011;BME280;59543;37.950;-122.338;2023-03-23T09:22:00;101898.25;;;9.65;80.61
70011;BME280;59543;37.950;-122.338;2023-03-23T09:24:27;101897.53;;;9.63;81.36
70011;BME280;59543;37.950;-122.338;2023-03-23T09:26:54;101895.06;;;9.60;81.07
70011;BME280;59543;37.950;-122.338;2023-03-23T09:29:20;101893.78;;;9.53;81.41
70011;BME280;59543;37.950;-122.338;2023-03-23T09:31:47;101892.41;;;9.47;81.78
70011;BME280;59543;37.950;-122.338;2023-03-23T09:34:14;101890.53;;;9.36;82.16
70011;BME280;59543;37.950;-122.338;2023-03-23T09:36:42;101886.41;;;9.44;81.60
70011;BME280;59543;37.950;-122.338;2023-03-23T09:39:08;101889.91;;;9.33;82.16
70011;BME280;59543;37.950;-122.338;2023-03-23T09:49:32;101894.00;;;9.26;81.96
70011;BME280;59543;37.950;-122.338;2023-03-23T09:54:37;101896.06;;;9.22;82.12
70011;BME280;59543;37.950;-122.338;2023-03-23T09:57:14;101893.91;;;9.27;81.94
70011;BME280;59543;37.950;-122.338;2023-03-23T10:02:21;101894.34;;;9.21;81.85
70011;BME280;59543;37.950;-122.338;2023-03-23T10:04:54;101890.16;;;9.17;82.50
70011;BME280;59543;37.950;-122.338;2023-03-23T10:07:26;101892.56;;;9.09;82.48
70011;BME280;59543;37.950;-122.338;2023-03-23T10:09:56;101900.84;;;9.06;82.75
70011;BME280;59543;37.950;-122.338;2023-03-23T10:15:12;101905.31;;;9.18;81.65
70011;BME280;59543;37.950;-122.338;2023-03-23T10:17:54;101894.56;;;9.18;81.41
70011;BME280;59543;37.950;-122.338;2023-03-23T10:20:48;101911.13;;;9.12;81.41
70011;BME280;59543;37.950;-122.338;2023-03-23T10:28:56;101923.19;;;8.93;81.01
70011;BME280;59543;37.950;-122.338;2023-03-23T10:31:32;101922.31;;;8.93;80.47
70011;BME280;59543;37.950;-122.338;2023-03-23T10:34:08;101915.53;;;8.87;80.71
70011;BME280;59543;37.950;-122.338;2023-03-23T10:36:40;101911.91;;;8.88;80.68
70011;BME280;59543;37.950;-122.338;2023-03-23T10:39:15;101915.00;;;8.95;80.17
70011;BME280;59543;37.950;-122.338;2023-03-23T10:41:44;101924.13;;;8.92;80.41
70011;BME280;59543;37.950;-122.338;2023-03-23T10:44:21;101918.44;;;8.97;80.43
70011;BME280;59543;37.950;-122.338;2023-03-23T10:49:36;101922.53;;;9.03;79.84
70011;BME280;59543;37.950;-122.338;2023-03-23T10:54:57;101919.41;;;8.96;80.22
70011;BME280;59543;37.950;-122.338;2023-03-23T10:57:27;101920.78;;;9.02;79.69
70011;BME280;59543;37.950;-122.338;2023-03-23T11:00:05;101922.09;;;9.09;80.12
70011;BME280;59543;37.950;-122.338;2023-03-23T11:02:39;101925.00;;;9.06;79.86
70011;BME280;59543;37.950;-122.338;2023-03-23T11:05:19;101934.31;;;9.13;79.15
70011;BME280;59543;37.950;-122.338;2023-03-23T11:07:56;101931.84;;;9.10;79.56
70011;BME280;59543;37.950;-122.338;2023-03-23T11:10:27;101931.94;;;9.08;79.79
70011;BME280;59543;37.950;-122.338;2023-03-23T11:12:57;101925.00;;;9.06;79.86
70011;BME280;59543;37.950;-122.338;2023-03-23T11:15:32;101931.53;;;9.02;80.20
70011;BME280;59543;37.950;-122.338;2023-03-23T11:18:39;101932.59;;;9.12;79.95
70011;BME280;59543;37.950;-122.338;2023-03-23T11:21:07;101935.38;;;9.10;79.79
70011;BME280;59543;37.950;-122.338;2023-03-23T11:23:37;101935.16;;;9.13;79.58
70011;BME280;59543;37.950;-122.338;2023-03-23T11:26:21;101928.09;;;9.12;79.98
70011;BME280;59543;37.950;-122.338;2023-03-23T11:28:51;101933.44;;;9.12;79.98
70011;BME280;59543;37.950;-122.338;2023-03-23T11:31:32;101942.44;;;9.24;79.29
70011;BME280;59543;37.950;-122.338;2023-03-23T11:34:01;101948.34;;;9.16;79.99
70011;BME280;59543;37.950;-122.338;2023-03-23T11:36:33;101950.19;;;9.16;79.76
70011;BME280;59543;37.950;-122.338;2023-03-23T11:39:00;101954.56;;;9.17;79.47
70011;BME280;59543;37.950;-122.338;2023-03-23T11:41:34;101959.72;;;9.20;79.45
70011;BME280;59543;37.950;-122.338;2023-03-23T11:44:10;101960.28;;;9.12;80.47
70011;BME280;59543;37.950;-122.338;2023-03-23T11:49:26;101963.19;;;9.09;79.81
70011;BME280;59543;37.950;-122.338;2023-03-23T11:52:11;101968.22;;;9.14;80.02
70011;BME280;59543;37.950;-122.338;2023-03-23T11:55:07;101976.06;;;9.17;79.74
70011;BME280;59543;37.950;-122.338;2023-03-23T11:57:35;101974.88;;;9.08;79.94
70011;BME280;59543;37.950;-122.338;2023-03-23T12:00:14;101977.13;;;9.14;79.33
70011;BME280;59543;37.950;-122.338;2023-03-23T12:03:04;101983.16;;;9.18;78.24
70011;BME280;59543;37.950;-122.338;2023-03-23T12:05:40;101984.47;;;9.12;78.84
70011;BME280;59543;37.950;-122.338;2023-03-23T12:19:12;101990.13;;;9.08;77.93
70011;BME280;59543;37.950;-122.338;2023-03-23T12:27:35;102004.22;;;8.99;77.59
70011;BME280;59543;37.950;-122.338;2023-03-23T12:30:16;102008.72;;;8.98;77.59
70011;BME280;59543;37.950;-122.338;2023-03-23T12:33:11;102002.59;;;9.09;76.15
70011;BME280;59543;37.950;-122.338;2023-03-23T12:41:22;102014.66;;;8.90;77.04
70011;BME280;59543;37.950;-122.338;2023-03-23T12:44:07;102020.22;;;9.00;76.61
70011;BME280;59543;37.950;-122.338;2023-03-23T12:49:38;102020.41;;;8.84;76.37
70011;BME280;59543;37.950;-122.338;2023-03-23T12:55:18;102025.78;;;8.84;75.88
70011;BME280;59543;37.950;-122.338;2023-03-23T12:58:04;102028.78;;;8.80;76.56
70011;BME280;59543;37.950;-122.338;2023-03-23T13:03:49;102041.34;;;8.66;77.09
70011;BME280;59543;37.950;-122.338;2023-03-23T13:06:41;102046.16;;;8.74;76.55
70011;BME280;59543;37.950;-122.338;2023-03-23T13:11:57;102056.44;;;8.55;76.85
70011;BME280;59543;37.950;-122.338;2023-03-23T13:22:56;102070.34;;;8.47;75.93
70011;BME280;59543;37.950;-122.338;2023-03-23T13:28:02;102068.75;;;8.30;76.97
70011;BME280;59543;37.950;-122.338;2023-03-23T13:30:30;102078.63;;;8.30;77.16
70011;BME280;59543;37.950;-122.338;2023-03-23T13:33:04;102077.31;;;8.22;78.34
70011;BME280;59543;37.950;-122.338;2023-03-23T13:35:36;102078.00;;;8.12;78.42
70011;BME280;59543;37.950;-122.338;2023-03-23T13:38:15;102080.19;;;8.19;78.40
70011;BME280;59543;37.950;-122.338;2023-03-23T13:40:45;102081.25;;;8.17;78.33
70011;BME280;59543;37.950;-122.338;2023-03-23T13:43:12;102087.03;;;8.11;79.38
70011;BME280;59543;37.950;-122.338;2023-03-23T13:45:47;102093.69;;;8.18;78.53
70011;BME280;59543;37.950;-122.338;2023-03-23T13:50:55;102100.03;;;8.17;78.70
70011;BME280;59543;37.950;-122.338;2023-03-23T13:53:30;102103.56;;;8.17;78.96
70011;BME280;59543;37.950;-122.338;2023-03-23T13:56:21;102113.59;;;8.28;78.33
70011;BME280;59543;37.950;-122.338;2023-03-23T13:59:07;102116.75;;;8.20;78.64
70011;BME280;59543;37.950;-122.338;2023-03-23T14:01:38;102117.13;;;8.29;78.75
70011;BME280;59543;37.950;-122.338;2023-03-23T14:04:15;102112.25;;;8.21;79.50
70011;BME280;59543;37.950;-122.338;2023-03-23T14:06:42;102119.16;;;8.25;79.12
70011;BME280;59543;37.950;-122.338;2023-03-23T14:11:57;102131.22;;;8.18;79.80
70011;BME280;59543;37.950;-122.338;2023-03-23T14:17:16;102138.84;;;8.24;78.49
70011;BME280;59543;37.950;-122.338;2023-03-23T14:19:47;102144.13;;;8.25;78.98
70011;BME280;59543;37.950;-122.338;2023-03-23T14:22:25;102139.44;;;8.29;79.11
70011;BME280;59543;37.950;-122.338;2023-03-23T14:25:08;102145.59;;;8.17;79.88
70011;BME280;59543;37.950;-122.338;2023-03-23T14:27:36;102151.66;;;8.33;79.00
70011;BME280;59543;37.950;-122.338;2023-03-23T14:30:08;102146.91;;;8.38;78.41
70011;BME280;59543;37.950;-122.338;2023-03-23T14:32:35;102148.78;;;8.36;78.61
70011;BME280;59543;37.950;-122.338;2023-03-23T14:35:48;102151.66;;;8.33;78.40
70011;BME280;59543;37.950;-122.338;2023-03-23T14:37:55;102155.72;;;8.26;78.78
70011;BME280;59543;37.950;-122.338;2023-03-23T14:40:23;102162.09;;;8.38;78.18
70011;BME280;59543;37.950;-122.338;2023-03-23T14:42:51;102171.97;;;8.37;77.84
70011;BME280;59543;37.950;-122.338;2023-03-23T14:45:21;102170.63;;;8.44;77.76
70011;BME280;59543;37.950;-122.338;2023-03-23T14:47:49;102174.47;;;8.40;77.76
70011;BME280;59543;37.950;-122.338;2023-03-23T14:50:40;102168.72;;;8.46;77.10
70011;BME280;59543;37.950;-122.338;2023-03-23T14:53:33;102167.00;;;8.45;77.69
70011;BME280;59543;37.950;-122.338;2023-03-23T14:56:06;102174.25;;;8.58;76.48
70011;BME280;59543;37.950;-122.338;2023-03-23T14:58:32;102173.75;;;8.51;76.68
70011;BME280;59543;37.950;-122.338;2023-03-23T15:01:05;102174.13;;;8.59;76.25
70011;BME280;59543;37.950;-122.338;2023-03-23T15:03:39;102177.13;;;8.55;75.83
70011;BME280;59543;37.950;-122.338;2023-03-23T15:06:15;102176.81;;;8.59;74.40
70011;BME280;59543;37.950;-122.338;2023-03-23T15:08:43;102178.06;;;8.54;73.78
70011;BME280;59543;37.950;-122.338;2023-03-23T15:13:47;102183.31;;;8.69;74.07
70011;BME280;59543;37.950;-122.338;2023-03-23T15:16:23;102188.06;;;8.79;73.69
70011;BME280;59543;37.950;-122.338;2023-03-23T15:21:33;102194.44;;;8.90;72.75
70011;BME280;59543;37.950;-122.338;2023-03-23T15:24:40;102198.28;;;8.99;72.62
70011;BME280;59543;37.950;-122.338;2023-03-23T15:27:12;102203.47;;;9.02;72.63
70011;BME280;59543;37.950;-122.338;2023-03-23T15:29:53;102206.91;;;9.04;72.49
70011;BME280;59543;37.950;-122.338;2023-03-23T15:32:28;102206.50;;;9.10;72.23
70011;BME280;59543;37.950;-122.338;2023-03-23T15:34:55;102215.75;;;9.19;71.96